sensor_id;sensor_type;location;lat;lon;timestamp;pressure;altitude;pressure_sealevel;temperature;humidity
79378;BME280;68959;53.132;17.984;2023-07-13T00:01:49;100641.13;;;17.92;82.03
79378;BME280;68959;53.132;17.984;2023-07-13T00:04:17;100637.25;;;17.87;82.18
79378;BME280;68959;53.132;17.984;2023-07-13T00:06:45;100639.73;;;17.82;82.06
79378;BME280;68959;53.132;17.984;2023-07-13T00:09:16;100637.54;;;17.79;82.12
79378;BME280;68959;53.132;17.984;2023-07-13T00:11:44;100643.50;;;17.73;82.17
79378;BME280;68959;53.132;17.984;2023-07-13T00:14:11;100651.21;;;17.68;82.24
79378;BME280;68959;53.132;17.984;2023-07-13T00:16:39;100650.92;;;17.64;82.35
79378;BME280;68959;53.132;17.984;2023-07-13T00:19:07;100651.77;;;17.57;82.31
79378;BME280;68959;53.132;17.984;2023-07-13T00:21:34;100650.65;;;17.52;82.33
79378;BME280;68959;53.132;17.984;2023-07-13T00:24:01;100659.89;;;17.47;82.35
79378;BME280;68959;53.132;17.984;2023-07-13T00:26:29;100658.73;;;17.42;82.22
79378;BME280;68959;53.132;17.984;2023-07-13T00:28:55;100661.17;;;17.39;82.47
79378;BME280;68959;53.132;17.984;2023-07-13T00:31:22;100658.61;;;17.36;82.51
79378;BME280;68959;53.132;17.984;2023-07-13T00:33:49;100661.58;;;17.34;82.48
79378;BME280;68959;53.132;17.984;2023-07-13T00:36:15;100663.09;;;17.29;82.51
79378;BME280;68959;53.132;17.984;2023-07-13T00:38:42;100667.90;;;17.27;82.55
79378;BME280;68959;53.132;17.984;2023-07-13T00:41:10;100669.44;;;17.25;82.36
79378;BME280;68959;53.132;17.984;2023-07-13T00:43:37;100671.88;;;17.22;82.48
79378;BME280;68959;53.132;17.984;2023-07-13T00:46:13;100676.88;;;17.17;82.57
79378;BME280;68959;53.132;17.984;2023-07-13T00:48:43;100680.09;;;17.13;82.87
79378;BME280;68959;53.132;17.984;2023-07-13T00:51:12;100684.63;;;17.10;82.76
79378;BME280;68959;53.132;17.984;2023-07-13T00:53:41;100690.88;;;17.10;82.82
79378;BME280;68959;53.132;17.984;2023-07-13T00:56:08;100695.26;;;17.10;83.04
79378;BME280;68959;53.132;17.984;2023-07-13T00:58:35;100699.36;;;17.09;83.14
79378;BME280;68959;53.132;17.984;2023-07-13T01:01:03;100705.19;;;17.09;82.99
79378;BME280;68959;53.132;17.984;2023-07-13T01:03:30;100709.26;;;17.09;82.96
79378;BME280;68959;53.132;17.984;2023-07-13T01:05:57;100712.11;;;17.08;82.74
79378;BME280;68959;53.132;17.984;2023-07-13T01:08:23;100707.77;;;17.08;82.79
79378;BME280;68959;53.132;17.984;2023-07-13T01:10:55;100703.14;;;17.05;82.92
79378;BME280;68959;53.132;17.984;2023-07-13T01:13:22;100703.49;;;17.02;82.66
79378;BME280;68959;53.132;17.984;2023-07-13T01:15:51;100698.81;;;16.99;82.94
79378;BME280;68959;53.132;17.984;2023-07-13T01:18:21;100696.91;;;16.99;82.84
79378;BME280;68959;53.132;17.984;2023-07-13T01:20:56;100693.73;;;16.98;82.89
79378;BME280;68959;53.132;17.984;2023-07-13T01:23:24;100689.58;;;16.97;82.96
79378;BME280;68959;53.132;17.984;2023-07-13T01:25:52;100688.65;;;16.94;83.08
79378;BME280;68959;53.132;17.984;2023-07-13T01:28:19;100684.96;;;16.91;83.27
79378;BME280;68959;53.132;17.984;2023-07-13T01:30:46;100686.31;;;16.91;83.15
79378;BME280;68959;53.132;17.984;2023-07-13T01:33:16;100686.52;;;16.87;83.16
79378;BME280;68959;53.132;17.984;2023-07-13T01:35:44;100693.33;;;16.85;82.97
79378;BME280;68959;53.132;17.984;2023-07-13T01:38:14;100694.92;;;16.83;83.10
79378;BME280;68959;53.132;17.984;2023-07-13T01:40:42;100693.56;;;16.82;83.02
79378;BME280;68959;53.132;17.984;2023-07-13T01:43:08;100696.91;;;16.79;82.89
79378;BME280;68959;53.132;17.984;2023-07-13T01:45:35;100699.64;;;16.78;82.97
79378;BME280;68959;53.132;17.984;2023-07-13T01:48:03;100707.30;;;16.77;83.05
79378;BME280;68959;53.132;17.984;2023-07-13T01:50:29;100713.07;;;16.76;83.06
79378;BME280;68959;53.132;17.984;2023-07-13T01:52:56;100723.02;;;16.75;83.09
79378;BME280;68959;53.132;17.984;2023-07-13T01:55:23;100725.36;;;16.76;83.15
79378;BME280;68959;53.132;17.984;2023-07-13T01:57:49;100725.05;;;16.77;83.22
79378;BME280;68959;53.132;17.984;2023-07-13T02:00:16;100718.54;;;16.77;83.22
79378;BME280;68959;53.132;17.984;2023-07-13T02:02:43;100713.18;;;16.76;83.02
79378;BME280;68959;53.132;17.984;2023-07-13T02:05:12;100708.85;;;16.77;83.08
79378;BME280;68959;53.132;17.984;2023-07-13T02:07:39;100709.20;;;16.76;82.98
79378;BME280;68959;53.132;17.984;2023-07-13T02:10:07;100705.89;;;16.77;83.02
79378;BME280;68959;53.132;17.984;2023-07-13T02:12:35;100708.59;;;16.79;83.08
79378;BME280;68959;53.132;17.984;2023-07-13T02:15:03;100705.69;;;16.79;83.11
79378;BME280;68959;53.132;17.984;2023-07-13T02:17:30;100702.25;;;16.80;83.05
79378;BME280;68959;53.132;17.984;2023-07-13T02:19:56;100696.63;;;16.80;83.18
79378;BME280;68959;53.132;17.984;2023-07-13T02:22:23;100692.58;;;16.79;83.06
79378;BME280;68959;53.132;17.984;2023-07-13T02:24:50;100688.48;;;16.81;83.14
79378;BME280;68959;53.132;17.984;2023-07-13T02:27:19;100688.70;;;16.82;82.87
79378;BME280;68959;53.132;17.984;2023-07-13T02:29:45;100687.63;;;16.80;82.70
79378;BME280;68959;53.132;17.984;2023-07-13T02:32:12;100681.66;;;16.78;82.77
79378;BME280;68959;53.132;17.984;2023-07-13T02:34:41;100682.49;;;16.75;82.86
79378;BME280;68959;53.132;17.984;2023-07-13T02:37:08;100686.94;;;16.74;82.89
79378;BME280;68959;53.132;17.984;2023-07-13T02:39:36;100687.85;;;16.73;82.93
79378;BME280;68959;53.132;17.984;2023-07-13T02:42:04;100688.20;;;16.72;83.09
79378;BME280;68959;53.132;17.984;2023-07-13T02:44:31;100695.88;;;16.74;83.19
79378;BME280;68959;53.132;17.984;2023-07-13T02:46:58;100696.54;;;16.74;83.18
79378;BME280;68959;53.132;17.984;2023-07-13T02:49:24;100692.34;;;16.74;83.25
79378;BME280;68959;53.132;17.984;2023-07-13T02:51:51;100691.77;;;16.75;83.03
79378;BME280;68959;53.132;17.984;2023-07-13T02:54:18;100685.62;;;16.76;83.10
79378;BME280;68959;53.132;17.984;2023-07-13T02:56:45;100685.46;;;16.77;83.07
79378;BME280;68959;53.132;17.984;2023-07-13T02:59:12;100689.38;;;16.77;82.87
79378;BME280;68959;53.132;17.984;2023-07-13T03:01:39;100686.81;;;16.78;82.83
79378;BME280;68959;53.132;17.984;2023-07-13T03:04:07;100684.44;;;16.80;82.93
79378;BME280;68959;53.132;17.984;2023-07-13T03:06:34;100682.85;;;16.79;82.92
79378;BME280;68959;53.132;17.984;2023-07-13T03:09:01;100691.02;;;16.76;82.98
79378;BME280;68959;53.132;17.984;2023-07-13T03:11:29;100686.64;;;16.75;83.17
79378;BME280;68959;53.132;17.984;2023-07-13T03:14:04;100683.06;;;16.77;83.35
79378;BME280;68959;53.132;17.984;2023-07-13T03:16:34;100681.64;;;16.78;83.06
79378;BME280;68959;53.132;17.984;2023-07-13T03:19:00;100682.17;;;16.77;83.05
79378;BME280;68959;53.132;17.984;2023-07-13T03:21:27;100681.80;;;16.76;83.01
79378;BME280;68959;53.132;17.984;2023-07-13T03:23:54;100684.86;;;16.77;82.96
79378;BME280;68959;53.132;17.984;2023-07-13T03:26:21;100690.88;;;16.80;82.88
79378;BME280;68959;53.132;17.984;2023-07-13T03:28:49;100697.92;;;16.84;82.79
79378;BME280;68959;53.132;17.984;2023-07-13T03:31:24;100705.20;;;16.86;82.64
79378;BME280;68959;53.132;17.984;2023-07-13T03:33:52;100704.16;;;16.88;82.57
79378;BME280;68959;53.132;17.984;2023-07-13T03:36:21;100701.09;;;16.90;82.61
79378;BME280;68959;53.132;17.984;2023-07-13T03:38:53;100704.62;;;16.92;82.54
79378;BME280;68959;53.132;17.984;2023-07-13T03:41:23;100703.49;;;16.94;82.36
79378;BME280;68959;53.132;17.984;2023-07-13T03:43:51;100705.15;;;16.98;82.41
79378;BME280;68959;53.132;17.984;2023-07-13T03:46:19;100703.73;;;16.99;82.29
79378;BME280;68959;53.132;17.984;2023-07-13T03:48:47;100711.52;;;17.05;82.44
79378;BME280;68959;53.132;17.984;2023-07-13T03:51:16;100714.30;;;17.08;82.23
79378;BME280;68959;53.132;17.984;2023-07-13T03:53:45;100714.56;;;17.11;82.15
79378;BME280;68959;53.132;17.984;2023-07-13T03:56:13;100718.02;;;17.13;81.88
79378;BME280;68959;53.132;17.984;2023-07-13T03:58:46;100725.02;;;17.13;81.82
79378;BME280;68959;53.132;17.984;2023-07-13T04:01:21;100723.48;;;17.09;81.80
79378;BME280;68959;53.132;17.984;2023-07-13T04:03:48;100725.65;;;17.08;81.91
79378;BME280;68959;53.132;17.984;2023-07-13T04:06:25;100732.06;;;17.09;81.79
79378;BME280;68959;53.132;17.984;2023-07-13T04:08:55;100723.77;;;17.04;82.02
79378;BME280;68959;53.132;17.984;2023-07-13T04:11:24;100734.85;;;17.13;81.88
79378;BME280;68959;53.132;17.984;2023-07-13T04:13:52;100735.80;;;17.17;81.88
79378;BME280;68959;53.132;17.984;2023-07-13T04:16:19;100735.13;;;17.22;81.72
79378;BME280;68959;53.132;17.984;2023-07-13T04:18:47;100737.52;;;17.28;81.70
79378;BME280;68959;53.132;17.984;2023-07-13T04:21:14;100729.90;;;17.33;81.69
79378;BME280;68959;53.132;17.984;2023-07-13T04:23:42;100718.52;;;17.39;81.32
79378;BME280;68959;53.132;17.984;2023-07-13T04:26:09;100715.66;;;17.41;81.40
79378;BME280;68959;53.132;17.984;2023-07-13T04:28:35;100716.40;;;17.50;81.48
79378;BME280;68959;53.132;17.984;2023-07-13T04:31:02;100725.90;;;17.61;81.12
79378;BME280;68959;53.132;17.984;2023-07-13T04:33:30;100733.92;;;17.70;81.06
79378;BME280;68959;53.132;17.984;2023-07-13T04:35:57;100746.44;;;17.83;80.79
79378;BME280;68959;53.132;17.984;2023-07-13T04:38:28;100741.75;;;17.91;80.51
79378;BME280;68959;53.132;17.984;2023-07-13T04:40:56;100740.33;;;17.94;80.43
79378;BME280;68959;53.132;17.984;2023-07-13T04:43:24;100738.94;;;18.02;80.39
79378;BME280;68959;53.132;17.984;2023-07-13T04:45:51;100743.21;;;18.13;79.84
79378;BME280;68959;53.132;17.984;2023-07-13T04:48:19;100756.65;;;18.26;79.50
79378;BME280;68959;53.132;17.984;2023-07-13T04:50:46;100758.55;;;18.41;79.36
79378;BME280;68959;53.132;17.984;2023-07-13T04:53:13;100766.45;;;18.56;78.90
79378;BME280;68959;53.132;17.984;2023-07-13T04:55:40;100771.33;;;18.73;78.63
79378;BME280;68959;53.132;17.984;2023-07-13T04:58:07;100773.15;;;18.89;78.17
79378;BME280;68959;53.132;17.984;2023-07-13T05:00:33;100769.02;;;19.08;77.70
79378;BME280;68959;53.132;17.984;2023-07-13T05:03:00;100773.71;;;19.31;77.41
79378;BME280;68959;53.132;17.984;2023-07-13T05:05:27;100780.20;;;19.66;76.46
79378;BME280;68959;53.132;17.984;2023-07-13T05:07:54;100777.94;;;19.99;75.65
79378;BME280;68959;53.132;17.984;2023-07-13T05:10:20;100775.12;;;20.21;75.00
79378;BME280;68959;53.132;17.984;2023-07-13T05:12:47;100779.44;;;20.33;74.59
79378;BME280;68959;53.132;17.984;2023-07-13T05:15:14;100775.94;;;20.41;74.42
79378;BME280;68959;53.132;17.984;2023-07-13T05:17:41;100773.22;;;20.41;74.19
79378;BME280;68959;53.132;17.984;2023-07-13T05:20:08;100773.77;;;20.42;74.11
79378;BME280;68959;53.132;17.984;2023-07-13T05:22:35;100769.80;;;20.47;74.17
79378;BME280;68959;53.132;17.984;2023-07-13T05:25:06;100770.70;;;20.52;73.91
79378;BME280;68959;53.132;17.984;2023-07-13T05:27:34;100768.96;;;20.64;73.38
79378;BME280;68959;53.132;17.984;2023-07-13T05:30:02;100775.33;;;20.84;72.72
79378;BME280;68959;53.132;17.984;2023-07-13T05:32:29;100779.04;;;21.03;72.52
79378;BME280;68959;53.132;17.984;2023-07-13T05:34:56;100788.33;;;21.26;72.09
79378;BME280;68959;53.132;17.984;2023-07-13T05:37:23;100785.85;;;21.47;71.56
79378;BME280;68959;53.132;17.984;2023-07-13T05:39:49;100794.04;;;21.74;70.85
79378;BME280;68959;53.132;17.984;2023-07-13T05:42:16;100797.13;;;21.93;69.53
79378;BME280;68959;53.132;17.984;2023-07-13T05:44:42;100797.27;;;21.95;69.06
79378;BME280;68959;53.132;17.984;2023-07-13T05:47:09;100787.00;;;21.98;68.56
79378;BME280;68959;53.132;17.984;2023-07-13T05:49:36;100777.23;;;22.03;67.67
79378;BME280;68959;53.132;17.984;2023-07-13T05:52:02;100782.48;;;22.09;67.41
79378;BME280;68959;53.132;17.984;2023-07-13T05:54:29;100781.00;;;22.17;67.10
79378;BME280;68959;53.132;17.984;2023-07-13T05:56:56;100778.40;;;22.27;66.45
79378;BME280;68959;53.132;17.984;2023-07-13T05:59:23;100785.13;;;22.34;66.01
79378;BME280;68959;53.132;17.984;2023-07-13T06:01:50;100789.65;;;22.29;66.05
79378;BME280;68959;53.132;17.984;2023-07-13T06:04:19;100788.66;;;22.29;66.01
79378;BME280;68959;53.132;17.984;2023-07-13T06:06:47;100790.61;;;22.41;65.78
79378;BME280;68959;53.132;17.984;2023-07-13T06:09:14;100785.63;;;22.50;65.15
79378;BME280;68959;53.132;17.984;2023-07-13T06:11:41;100783.40;;;22.58;65.09
79378;BME280;68959;53.132;17.984;2023-07-13T06:14:07;100781.42;;;22.69;64.65
79378;BME280;68959;53.132;17.984;2023-07-13T06:16:34;100781.05;;;22.78;64.45
79378;BME280;68959;53.132;17.984;2023-07-13T06:19:01;100775.32;;;22.90;64.04
79378;BME280;68959;53.132;17.984;2023-07-13T06:21:27;100776.91;;;23.01;63.62
79378;BME280;68959;53.132;17.984;2023-07-13T06:23:54;100780.75;;;23.19;63.09
79378;BME280;68959;53.132;17.984;2023-07-13T06:26:21;100785.92;;;23.34;61.90
79378;BME280;68959;53.132;17.984;2023-07-13T06:28:47;100790.34;;;23.43;62.38
79378;BME280;68959;53.132;17.984;2023-07-13T06:31:15;100787.05;;;23.54;62.44
79378;BME280;68959;53.132;17.984;2023-07-13T06:33:42;100781.12;;;23.71;61.77
79378;BME280;68959;53.132;17.984;2023-07-13T06:36:10;100782.66;;;23.85;61.08
79378;BME280;68959;53.132;17.984;2023-07-13T06:38:37;100784.95;;;24.06;60.83
79378;BME280;68959;53.132;17.984;2023-07-13T06:41:06;100787.50;;;24.33;60.90
79378;BME280;68959;53.132;17.984;2023-07-13T06:43:34;100780.22;;;24.63;60.41
79378;BME280;68959;53.132;17.984;2023-07-13T06:46:00;100780.95;;;24.82;59.36
79378;BME280;68959;53.132;17.984;2023-07-13T06:48:27;100782.75;;;25.05;58.20
79378;BME280;68959;53.132;17.984;2023-07-13T06:50:54;100789.45;;;25.19;57.59
79378;BME280;68959;53.132;17.984;2023-07-13T06:53:22;100789.58;;;25.24;57.11
79378;BME280;68959;53.132;17.984;2023-07-13T06:55:49;100796.11;;;25.27;55.81
79378;BME280;68959;53.132;17.984;2023-07-13T06:58:17;100799.98;;;25.44;56.48
79378;BME280;68959;53.132;17.984;2023-07-13T07:00:44;100802.77;;;25.67;55.94
79378;BME280;68959;53.132;17.984;2023-07-13T07:03:11;100798.14;;;25.76;55.49
79378;BME280;68959;53.132;17.984;2023-07-13T07:05:38;100796.23;;;25.82;55.28
79378;BME280;68959;53.132;17.984;2023-07-13T07:08:05;100794.52;;;25.93;54.61
79378;BME280;68959;53.132;17.984;2023-07-13T07:10:32;100795.36;;;26.03;53.66
79378;BME280;68959;53.132;17.984;2023-07-13T07:12:59;100801.03;;;26.14;53.32
79378;BME280;68959;53.132;17.984;2023-07-13T07:15:26;100806.13;;;26.20;52.43
79378;BME280;68959;53.132;17.984;2023-07-13T07:17:53;100811.14;;;26.17;52.32
79378;BME280;68959;53.132;17.984;2023-07-13T07:20:20;100812.60;;;26.10;52.14
79378;BME280;68959;53.132;17.984;2023-07-13T07:22:47;100806.67;;;26.01;51.80
79378;BME280;68959;53.132;17.984;2023-07-13T07:25:14;100804.67;;;26.06;52.13
79378;BME280;68959;53.132;17.984;2023-07-13T07:27:41;100808.43;;;26.52;51.48
79378;BME280;68959;53.132;17.984;2023-07-13T07:30:08;100809.05;;;27.16;49.88
79378;BME280;68959;53.132;17.984;2023-07-13T07:32:35;100804.05;;;27.65;49.16
79378;BME280;68959;53.132;17.984;2023-07-13T07:35:02;100798.99;;;27.95;48.13
79378;BME280;68959;53.132;17.984;2023-07-13T07:37:28;100795.83;;;28.21;46.02
79378;BME280;68959;53.132;17.984;2023-07-13T07:39:55;100798.95;;;28.47;46.41
79378;BME280;68959;53.132;17.984;2023-07-13T07:42:22;100795.95;;;28.79;44.76
79378;BME280;68959;53.132;17.984;2023-07-13T07:44:48;100790.53;;;29.13;44.32
79378;BME280;68959;53.132;17.984;2023-07-13T07:47:15;100787.95;;;29.64;43.16
79378;BME280;68959;53.132;17.984;2023-07-13T07:49:42;100790.91;;;30.04;41.25
79378;BME280;68959;53.132;17.984;2023-07-13T07:52:09;100791.23;;;30.29;40.70
79378;BME280;68959;53.132;17.984;2023-07-13T07:54:36;100792.21;;;30.68;40.04
79378;BME280;68959;53.132;17.984;2023-07-13T07:57:03;100795.67;;;31.11;39.08
79378;BME280;68959;53.132;17.984;2023-07-13T07:59:29;100793.02;;;31.51;38.88
79378;BME280;68959;53.132;17.984;2023-07-13T08:01:56;100791.21;;;31.56;38.36
79378;BME280;68959;53.132;17.984;2023-07-13T08:04:22;100798.18;;;31.69;38.34
79378;BME280;68959;53.132;17.984;2023-07-13T08:06:49;100792.56;;;31.89;37.93
79378;BME280;68959;53.132;17.984;2023-07-13T08:09:16;100795.66;;;31.91;37.54
79378;BME280;68959;53.132;17.984;2023-07-13T08:11:42;100799.21;;;31.80;36.81
79378;BME280;68959;53.132;17.984;2023-07-13T08:14:09;100797.91;;;31.77;36.62
79378;BME280;68959;53.132;17.984;2023-07-13T08:16:35;100791.27;;;31.87;36.33
79378;BME280;68959;53.132;17.984;2023-07-13T08:19:02;100793.66;;;32.01;33.01
79378;BME280;68959;53.132;17.984;2023-07-13T08:21:29;100792.61;;;31.95;32.86
79378;BME280;68959;53.132;17.984;2023-07-13T08:23:55;100791.48;;;31.39;33.45
79378;BME280;68959;53.132;17.984;2023-07-13T08:26:22;100788.91;;;31.09;33.85
79378;BME280;68959;53.132;17.984;2023-07-13T08:28:49;100784.77;;;31.35;33.08
79378;BME280;68959;53.132;17.984;2023-07-13T08:31:15;100782.22;;;31.59;33.24
79378;BME280;68959;53.132;17.984;2023-07-13T08:33:42;100778.80;;;31.96;32.25
79378;BME280;68959;53.132;17.984;2023-07-13T08:36:09;100770.13;;;32.44;31.28
79378;BME280;68959;53.132;17.984;2023-07-13T08:38:35;100766.37;;;32.57;31.04
79378;BME280;68959;53.132;17.984;2023-07-13T08:41:11;100761.16;;;33.04;31.10
79378;BME280;68959;53.132;17.984;2023-07-13T08:43:38;100757.27;;;33.77;29.54
79378;BME280;68959;53.132;17.984;2023-07-13T08:46:16;100755.92;;;34.18;28.34
79378;BME280;68959;53.132;17.984;2023-07-13T08:48:56;100756.14;;;33.47;27.61
79378;BME280;68959;53.132;17.984;2023-07-13T08:54:02;100764.15;;;31.80;29.28
79378;BME280;68959;53.132;17.984;2023-07-13T08:56:31;100772.49;;;31.00;30.34
79378;BME280;68959;53.132;17.984;2023-07-13T08:59:01;100778.98;;;30.19;31.27
79378;BME280;68959;53.132;17.984;2023-07-13T09:04:18;100784.50;;;28.64;34.19
79378;BME280;68959;53.132;17.984;2023-07-13T09:14:58;100784.35;;;28.83;35.41
79378;BME280;68959;53.132;17.984;2023-07-13T09:17:40;100781.17;;;29.00;35.24
79378;BME280;68959;53.132;17.984;2023-07-13T09:23:00;100780.61;;;29.49;32.81
79378;BME280;68959;53.132;17.984;2023-07-13T09:25:34;100782.98;;;30.26;31.48
79378;BME280;68959;53.132;17.984;2023-07-13T09:28:24;100786.36;;;30.78;30.15
79378;BME280;68959;53.132;17.984;2023-07-13T09:33:43;100780.89;;;30.73;30.05
79378;BME280;68959;53.132;17.984;2023-07-13T09:36:30;100786.51;;;30.30;29.67
79378;BME280;68959;53.132;17.984;2023-07-13T09:44:36;100785.64;;;30.90;28.91
79378;BME280;68959;53.132;17.984;2023-07-13T09:47:15;100787.09;;;31.88;27.10
79378;BME280;68959;53.132;17.984;2023-07-13T09:49:43;100776.16;;;32.48;26.41
79378;BME280;68959;53.132;17.984;2023-07-13T09:52:14;100768.86;;;33.36;25.75
79378;BME280;68959;53.132;17.984;2023-07-13T09:54:45;100758.20;;;34.19;25.52
79378;BME280;68959;53.132;17.984;2023-07-13T09:57:19;100755.73;;;35.07;24.63
79378;BME280;68959;53.132;17.984;2023-07-13T09:59:51;100752.82;;;35.05;23.74
79378;BME280;68959;53.132;17.984;2023-07-13T10:05:02;100748.86;;;34.67;24.44
79378;BME280;68959;53.132;17.984;2023-07-13T10:07:31;100750.60;;;34.23;24.53
79378;BME280;68959;53.132;17.984;2023-07-13T10:10:22;100755.22;;;33.43;25.26
79378;BME280;68959;53.132;17.984;2023-07-13T10:12:49;100754.22;;;33.18;25.88
79378;BME280;68959;53.132;17.984;2023-07-13T10:15:22;100754.55;;;34.40;24.46
79378;BME280;68959;53.132;17.984;2023-07-13T10:17:52;100754.27;;;34.07;24.40
79378;BME280;68959;53.132;17.984;2023-07-13T10:20:19;100755.65;;;33.40;24.76
79378;BME280;68959;53.132;17.984;2023-07-13T10:23:11;100753.22;;;33.52;24.65
79378;BME280;68959;53.132;17.984;2023-07-13T10:25:43;100753.39;;;33.86;23.94
79378;BME280;68959;53.132;17.984;2023-07-13T10:30:52;100756.20;;;33.00;24.18
79378;BME280;68959;53.132;17.984;2023-07-13T10:33:21;100751.63;;;32.33;24.20
79378;BME280;68959;53.132;17.984;2023-07-13T10:35:50;100766.26;;;31.28;25.22
79378;BME280;68959;53.132;17.984;2023-07-13T10:38:21;100766.07;;;30.37;26.56
79378;BME280;68959;53.132;17.984;2023-07-13T10:43:28;100763.20;;;29.79;27.07
79378;BME280;68959;53.132;17.984;2023-07-13T10:45:59;100765.02;;;29.71;26.99
79378;BME280;68959;53.132;17.984;2023-07-13T10:48:27;100748.86;;;30.05;26.71
79378;BME280;68959;53.132;17.984;2023-07-13T10:50:56;100763.09;;;30.96;25.97
79378;BME280;68959;53.132;17.984;2023-07-13T10:53:37;100754.67;;;32.53;24.11
79378;BME280;68959;53.132;17.984;2023-07-13T10:56:29;100751.95;;;33.89;22.64
79378;BME280;68959;53.132;17.984;2023-07-13T10:59:11;100749.05;;;33.59;22.74
79378;BME280;68959;53.132;17.984;2023-07-13T11:01:57;100748.36;;;32.57;23.69
79378;BME280;68959;53.132;17.984;2023-07-13T11:04:25;100752.34;;;31.94;24.50
79378;BME280;68959;53.132;17.984;2023-07-13T11:06:57;100744.89;;;33.52;23.04
79378;BME280;68959;53.132;17.984;2023-07-13T11:09:39;100744.58;;;35.32;21.33
79378;BME280;68959;53.132;17.984;2023-07-13T11:15:05;100747.31;;;37.49;18.55
79378;BME280;68959;53.132;17.984;2023-07-13T11:17:34;100741.54;;;38.08;18.40
79378;BME280;68959;53.132;17.984;2023-07-13T11:22:50;100741.16;;;37.36;18.86
79378;BME280;68959;53.132;17.984;2023-07-13T11:25:25;100743.21;;;36.70;19.42
79378;BME280;68959;53.132;17.984;2023-07-13T11:30:47;100751.23;;;34.25;21.29
79378;BME280;68959;53.132;17.984;2023-07-13T11:33:22;100751.33;;;33.12;22.75
79378;BME280;68959;53.132;17.984;2023-07-13T11:35:59;100769.77;;;31.88;24.51
79378;BME280;68959;53.132;17.984;2023-07-13T11:38:37;100770.54;;;30.86;25.66
79378;BME280;68959;53.132;17.984;2023-07-13T11:41:15;100773.89;;;30.06;26.56
79378;BME280;68959;53.132;17.984;2023-07-13T11:43:44;100774.36;;;29.51;27.36
79378;BME280;68959;53.132;17.984;2023-07-13T11:46:13;100774.27;;;29.15;28.11
79378;BME280;68959;53.132;17.984;2023-07-13T11:48:41;100780.17;;;28.99;28.52
79378;BME280;68959;53.132;17.984;2023-07-13T11:51:17;100782.92;;;28.88;29.37
79378;BME280;68959;53.132;17.984;2023-07-13T11:53:47;100779.14;;;29.01;29.59
79378;BME280;68959;53.132;17.984;2023-07-13T11:56:15;100774.66;;;29.79;28.87
79378;BME280;68959;53.132;17.984;2023-07-13T11:58:42;100770.94;;;30.58;28.32
79378;BME280;68959;53.132;17.984;2023-07-13T12:01:17;100769.70;;;30.62;28.40
79378;BME280;68959;53.132;17.984;2023-07-13T12:03:45;100769.23;;;31.22;28.03
79378;BME280;68959;53.132;17.984;2023-07-13T12:06:30;100749.89;;;33.02;25.59
79378;BME280;68959;53.132;17.984;2023-07-13T12:09:01;100738.74;;;33.79;24.80
79378;BME280;68959;53.132;17.984;2023-07-13T12:11:30;100743.17;;;34.96;23.60
79378;BME280;68959;53.132;17.984;2023-07-13T12:13:57;100743.40;;;35.72;22.81
79378;BME280;68959;53.132;17.984;2023-07-13T12:16:30;100740.89;;;36.08;22.07
79378;BME280;68959;53.132;17.984;2023-07-13T12:19:00;100738.67;;;36.74;20.46
79378;BME280;68959;53.132;17.984;2023-07-13T12:21:32;100735.75;;;37.64;19.78
79378;BME280;68959;53.132;17.984;2023-07-13T12:24:00;100735.54;;;37.27;19.51
79378;BME280;68959;53.132;17.984;2023-07-13T12:26:29;100730.27;;;37.12;19.24
79378;BME280;68959;53.132;17.984;2023-07-13T12:29:00;100727.31;;;37.82;18.94
79378;BME280;68959;53.132;17.984;2023-07-13T12:31:41;100725.22;;;37.83;18.58
79378;BME280;68959;53.132;17.984;2023-07-13T12:34:12;100727.90;;;36.14;19.96
79378;BME280;68959;53.132;17.984;2023-07-13T12:36:58;100734.55;;;34.68;21.03
79378;BME280;68959;53.132;17.984;2023-07-13T12:39:45;100734.35;;;33.16;22.73
79378;BME280;68959;53.132;17.984;2023-07-13T12:42:26;100742.83;;;32.18;24.05
79378;BME280;68959;53.132;17.984;2023-07-13T12:44:58;100741.96;;;32.11;24.14
79378;BME280;68959;53.132;17.984;2023-07-13T12:47:27;100745.04;;;31.35;25.02
79378;BME280;68959;53.132;17.984;2023-07-13T12:49:57;100751.09;;;30.48;26.13
79378;BME280;68959;53.132;17.984;2023-07-13T12:52:32;100754.16;;;29.64;27.45
79378;BME280;68959;53.132;17.984;2023-07-13T12:55:12;100758.73;;;28.91;28.66
79378;BME280;68959;53.132;17.984;2023-07-13T12:57:51;100766.55;;;28.41;29.68
79378;BME280;68959;53.132;17.984;2023-07-13T13:03:05;100773.86;;;27.79;30.65
79378;BME280;68959;53.132;17.984;2023-07-13T13:05:33;100778.12;;;27.51;30.94
79378;BME280;68959;53.132;17.984;2023-07-13T13:08:00;100781.94;;;27.25;31.57
79378;BME280;68959;53.132;17.984;2023-07-13T13:10:27;100778.52;;;27.09;31.91
79378;BME280;68959;53.132;17.984;2023-07-13T13:12:54;100773.70;;;27.12;31.91
79378;BME280;68959;53.132;17.984;2023-07-13T13:15:20;100770.80;;;27.24;31.76
79378;BME280;68959;53.132;17.984;2023-07-13T13:17:48;100771.08;;;27.32;31.63
79378;BME280;68959;53.132;17.984;2023-07-13T13:20:18;100773.33;;;27.36;31.66
79378;BME280;68959;53.132;17.984;2023-07-13T13:22:45;100774.88;;;27.41;31.49
79378;BME280;68959;53.132;17.984;2023-07-13T13:25:13;100767.80;;;27.39;34.35
79378;BME280;68959;53.132;17.984;2023-07-13T13:27:41;100768.21;;;27.30;36.30
79378;BME280;68959;53.132;17.984;2023-07-13T13:30:16;100773.42;;;27.14;36.93
79378;BME280;68959;53.132;17.984;2023-07-13T13:32:46;100776.32;;;27.08;35.23
79378;BME280;68959;53.132;17.984;2023-07-13T13:35:18;100776.59;;;27.31;39.02